createdAt,value
2022-09-25T00:00:50.771Z,100.00
2022-09-25T00:03:18.590Z,100.00
2022-09-25T00:05:46.167Z,100.00
2022-09-25T00:08:13.810Z,100.00
2022-09-25T00:10:42.437Z,100.00
2022-09-25T00:13:10.087Z,100.00
2022-09-25T00:15:37.636Z,100.00
2022-09-25T00:18:07.466Z,100.00
2022-09-25T00:20:34.039Z,100.00
2022-09-25T00:23:02.331Z,100.00
2022-09-25T00:25:28.808Z,100.00
2022-09-25T00:27:55.748Z,100.00
2022-09-25T00:30:22.419Z,100.00
2022-09-25T00:32:48.950Z,100.00
2022-09-25T00:35:15.568Z,100.00
2022-09-25T00:37:42.009Z,100.00
2022-09-25T00:40:09.567Z,100.00
2022-09-25T00:42:36.647Z,100.00
2022-09-25T00:45:18.485Z,100.00
2022-09-25T00:47:53.343Z,100.00
2022-09-25T00:50:35.683Z,100.00
2022-09-25T00:53:09.297Z,100.00
2022-09-25T00:55:37.759Z,100.00
2022-09-25T00:58:06.155Z,100.00
2022-09-25T01:00:34.271Z,100.00
2022-09-25T01:03:05.127Z,100.00
2022-09-25T01:05:35.645Z,100.00
2022-09-25T01:08:05.900Z,100.00
2022-09-25T01:10:33.787Z,100.00
2022-09-25T01:13:01.411Z,100.00
2022-09-25T01:15:34.028Z,100.00
2022-09-25T01:18:12.936Z,100.00
2022-09-25T01:21:17.464Z,100.00
2022-09-25T01:24:24.220Z,100.00
2022-09-25T01:27:02.760Z,100.00
2022-09-25T01:29:47.454Z,100.00
2022-09-25T01:32:32.575Z,100.00
2022-09-25T01:35:09.336Z,100.00
2022-09-25T01:37:45.572Z,100.00
2022-09-25T01:40:21.331Z,100.00
2022-09-25T01:42:56.216Z,100.00
2022-09-25T01:45:36.846Z,100.00
2022-09-25T01:48:07.641Z,100.00
2022-09-25T01:50:50.859Z,100.00
2022-09-25T01:53:23.907Z,100.00
2022-09-25T01:55:58.317Z,100.00
2022-09-25T01:58:34.107Z,100.00
2022-09-25T02:01:14.024Z,100.00
2022-09-25T02:03:50.681Z,100.00
2022-09-25T02:06:20.873Z,100.00
2022-09-25T02:08:54.505Z,100.00
2022-09-25T02:11:23.239Z,100.00
2022-09-25T02:13:58.768Z,100.00
2022-09-25T02:16:35.497Z,100.00
2022-09-25T02:19:23.038Z,100.00
2022-09-25T02:22:05.038Z,100.00
2022-09-25T02:24:43.247Z,100.00
2022-09-25T02:27:09.751Z,100.00
2022-09-25T02:29:36.764Z,100.00
2022-09-25T02:32:07.716Z,100.00
2022-09-25T02:34:34.563Z,100.00
2022-09-25T02:37:02.091Z,100.00
2022-09-25T02:39:31.072Z,100.00
2022-09-25T02:42:25.726Z,100.00
2022-09-25T02:45:20.053Z,100.00
2022-09-25T02:48:24.377Z,100.00
2022-09-25T02:51:07.859Z,100.00
2022-09-25T02:53:51.409Z,100.00
2022-09-25T02:56:24.555Z,100.00
2022-09-25T02:58:54.855Z,100.00
2022-09-25T03:01:25.034Z,100.00
2022-09-25T03:03:55.277Z,100.00
2022-09-25T03:06:25.472Z,100.00
2022-09-25T03:08:56.740Z,100.00
2022-09-25T03:11:26.799Z,100.00
2022-09-25T03:14:02.489Z,100.00
2022-09-25T03:16:56.450Z,100.00
2022-09-25T03:19:26.748Z,100.00
2022-09-25T03:21:54.105Z,100.00
2022-09-25T03:24:21.240Z,100.00
2022-09-25T03:26:47.845Z,100.00
2022-09-25T03:29:17.224Z,100.00
2022-09-25T03:31:45.428Z,100.00
2022-09-25T03:34:13.396Z,100.00
2022-09-25T03:36:40.638Z,100.00
2022-09-25T03:39:07.135Z,100.00
2022-09-25T03:41:35.150Z,100.00
2022-09-25T03:44:04.250Z,100.00
2022-09-25T03:46:34.178Z,100.00
2022-09-25T03:49:01.839Z,100.00
2022-09-25T03:51:31.237Z,100.00
2022-09-25T03:53:58.102Z,100.00
2022-09-25T03:56:27.113Z,100.00
2022-09-25T03:58:56.684Z,100.00
2022-09-25T04:01:24.509Z,100.00
2022-09-25T04:03:51.430Z,100.00
2022-09-25T04:06:21.004Z,100.00
2022-09-25T04:08:48.316Z,100.00
2022-09-25T04:11:16.716Z,100.00
2022-09-25T04:13:44.680Z,100.00
2022-09-25T04:16:13.311Z,100.00
2022-09-25T04:18:41.725Z,100.00
2022-09-25T04:21:10.648Z,100.00
2022-09-25T04:23:37.923Z,100.00
2022-09-25T04:26:05.238Z,100.00
2022-09-25T04:28:33.561Z,100.00
2022-09-25T04:31:01.217Z,100.00
2022-09-25T04:33:48.539Z,100.00
2022-09-25T04:36:16.795Z,100.00
2022-09-25T04:38:43.905Z,100.00
2022-09-25T04:41:10.489Z,100.00
2022-09-25T04:43:37.140Z,100.00
2022-09-25T04:46:08.895Z,100.00
2022-09-25T04:48:36.022Z,100.00
2022-09-25T04:51:04.831Z,100.00
2022-09-25T04:53:35.316Z,100.00
2022-09-25T04:56:12.266Z,100.00
2022-09-25T04:58:45.550Z,100.00
2022-09-25T05:01:12.064Z,100.00
2022-09-25T05:03:38.606Z,100.00
2022-09-25T05:06:05.371Z,100.00
2022-09-25T05:08:32.641Z,100.00
2022-09-25T05:10:59.223Z,100.00
2022-09-25T05:13:25.692Z,100.00
2022-09-25T05:15:52.235Z,100.00
2022-09-25T05:18:21.292Z,100.00
2022-09-25T05:20:48.677Z,100.00
2022-09-25T05:23:16.234Z,100.00
2022-09-25T05:25:43.133Z,100.00
2022-09-25T05:28:10.130Z,100.00
2022-09-25T05:30:38.809Z,100.00
2022-09-25T05:33:05.749Z,100.00
2022-09-25T05:35:33.761Z,100.00
2022-09-25T05:38:00.693Z,100.00
2022-09-25T05:40:28.446Z,100.00
2022-09-25T05:42:55.333Z,100.00
2022-09-25T05:45:23.241Z,100.00
2022-09-25T05:47:59.051Z,100.00
2022-09-25T05:50:26.086Z,100.00
2022-09-25T05:53:00.575Z,100.00
2022-09-25T05:55:28.304Z,100.00
2022-09-25T05:58:00.215Z,100.00
2022-09-25T06:00:28.221Z,100.00
2022-09-25T06:02:54.781Z,100.00
2022-09-25T06:05:21.294Z,100.00
2022-09-25T06:07:52.789Z,100.00
2022-09-25T06:10:19.424Z,100.00
2022-09-25T06:12:45.866Z,100.00
2022-09-25T06:15:12.232Z,100.00
2022-09-25T06:17:38.745Z,100.00
2022-09-25T06:20:05.897Z,100.00
2022-09-25T06:22:32.725Z,100.00
2022-09-25T06:24:59.179Z,100.00
2022-09-25T06:27:25.641Z,100.00
2022-09-25T06:29:52.172Z,100.00
2022-09-25T06:32:18.607Z,100.00
2022-09-25T06:34:45.045Z,100.00
2022-09-25T06:37:11.507Z,100.00
2022-09-25T06:39:37.999Z,100.00
2022-09-25T06:42:04.749Z,100.00
2022-09-25T06:44:31.831Z,100.00
2022-09-25T06:46:59.751Z,100.00
2022-09-25T06:49:26.339Z,100.00
2022-09-25T06:51:52.786Z,100.00
2022-09-25T06:54:19.260Z,100.00
2022-09-25T06:56:49.985Z,100.00
2022-09-25T06:59:16.875Z,100.00
2022-09-25T07:01:43.376Z,100.00
2022-09-25T07:04:10.174Z,100.00
2022-09-25T07:06:37.459Z,100.00
2022-09-25T07:09:04.487Z,100.00
2022-09-25T07:11:34.172Z,100.00
2022-09-25T07:14:01.397Z,100.00
2022-09-25T07:16:30.537Z,100.00
2022-09-25T07:19:03.539Z,100.00
2022-09-25T07:21:32.546Z,100.00
2022-09-25T07:23:59.251Z,100.00
2022-09-25T07:26:30.793Z,100.00
2022-09-25T07:29:06.617Z,100.00
2022-09-25T07:31:37.784Z,100.00
2022-09-25T07:34:09.127Z,100.00
2022-09-25T07:36:38.478Z,100.00
2022-09-25T07:39:05.624Z,100.00
2022-09-25T07:41:33.080Z,100.00
2022-09-25T07:44:18.019Z,100.00
2022-09-25T07:46:46.581Z,100.00
2022-09-25T07:49:13.600Z,100.00
2022-09-25T07:51:43.327Z,100.00
2022-09-25T07:54:09.788Z,100.00
2022-09-25T07:56:38.091Z,100.00
2022-09-25T07:59:04.670Z,100.00
2022-09-25T08:01:32.421Z,100.00
2022-09-25T08:03:59.425Z,99.76
2022-09-25T08:06:25.855Z,98.72
2022-09-25T08:08:52.322Z,99.03
2022-09-25T08:11:18.835Z,98.36
2022-09-25T08:13:46.127Z,98.16
2022-09-25T08:16:16.000Z,96.94
2022-09-25T08:18:46.137Z,96.64
2022-09-25T08:21:14.563Z,96.03
2022-09-25T08:23:47.437Z,95.59
2022-09-25T08:26:14.696Z,95.05
2022-09-25T08:28:41.879Z,95.65
2022-09-25T08:31:08.798Z,95.94
2022-09-25T08:33:36.011Z,95.57
2022-09-25T08:36:05.594Z,95.92
2022-09-25T08:38:34.512Z,94.55
2022-09-25T08:41:04.001Z,94.78
2022-09-25T08:43:34.056Z,92.82
2022-09-25T08:46:24.775Z,92.18
2022-09-25T08:49:02.297Z,92.59
2022-09-25T08:51:32.102Z,92.24
2022-09-25T08:54:00.953Z,92.38
2022-09-25T08:56:29.615Z,92.75
2022-09-25T08:59:25.852Z,92.97
2022-09-25T09:01:57.661Z,92.15
2022-09-25T09:04:39.151Z,91.52
2022-09-25T09:07:26.221Z,91.33
2022-09-25T09:10:07.259Z,91.38
2022-09-25T09:12:45.168Z,91.28
2022-09-25T09:15:34.660Z,90.91
2022-09-25T09:18:14.228Z,90.74
2022-09-25T09:20:52.293Z,90.18
2022-09-25T09:23:21.679Z,89.93
2022-09-25T09:26:02.026Z,89.90
2022-09-25T09:28:34.653Z,88.25
2022-09-25T09:31:21.161Z,87.81
2022-09-25T09:33:56.036Z,87.55
2022-09-25T09:36:28.300Z,87.23
2022-09-25T09:39:13.503Z,88.20
2022-09-25T09:41:51.496Z,87.24
2022-09-25T09:44:30.897Z,86.07
2022-09-25T09:47:39.312Z,83.46
2022-09-25T09:50:11.758Z,82.40
2022-09-25T09:52:42.350Z,81.92
2022-09-25T09:55:39.113Z,80.32
2022-09-25T09:58:19.111Z,80.43
2022-09-25T10:00:48.383Z,80.46
2022-09-25T10:03:28.530Z,80.48
2022-09-25T10:05:59.165Z,79.07
2022-09-25T10:08:25.696Z,79.81
2022-09-25T10:10:54.367Z,79.28
2022-09-25T10:13:34.026Z,78.85
2022-09-25T10:16:12.753Z,78.88
2022-09-25T10:18:46.568Z,78.29
2022-09-25T10:21:15.143Z,77.92
2022-09-25T10:23:48.285Z,77.40
2022-09-25T10:26:37.215Z,77.19
2022-09-25T10:29:10.294Z,75.51
2022-09-25T10:31:40.881Z,74.39
2022-09-25T10:34:13.657Z,73.69
2022-09-25T10:36:42.776Z,72.63
2022-09-25T10:39:43.612Z,72.48
2022-09-25T10:42:36.087Z,72.28
2022-09-25T10:45:30.885Z,73.13
2022-09-25T10:48:27.007Z,72.24
2022-09-25T10:51:07.546Z,72.21
2022-09-25T10:53:34.713Z,72.40
2022-09-25T10:56:36.123Z,73.02
2022-09-25T10:59:09.281Z,72.11
2022-09-25T11:01:41.430Z,71.68
2022-09-25T11:04:24.637Z,68.43
2022-09-25T11:07:01.756Z,67.27
2022-09-25T11:09:32.979Z,66.48
2022-09-25T11:12:15.080Z,67.07
2022-09-25T11:14:55.243Z,67.14
2022-09-25T11:17:42.684Z,66.08
2022-09-25T11:20:22.674Z,65.23
2022-09-25T11:23:01.119Z,64.00
2022-09-25T11:25:40.413Z,63.85
2022-09-25T11:28:44.589Z,63.60
2022-09-25T11:31:28.495Z,62.36
2022-09-25T11:34:08.221Z,60.88
2022-09-25T11:36:48.147Z,59.52
2022-09-25T11:39:46.279Z,58.46
2022-09-25T11:42:31.133Z,57.84
2022-09-25T11:45:08.719Z,57.62
2022-09-25T11:47:54.017Z,57.14
2022-09-25T11:50:26.025Z,55.76
2022-09-25T11:53:21.093Z,56.26
2022-09-25T11:55:50.501Z,57.67
2022-09-25T11:58:26.547Z,57.96
2022-09-25T12:01:09.468Z,57.92
2022-09-25T12:03:57.135Z,55.37
2022-09-25T12:06:48.939Z,55.38
2022-09-25T12:09:34.300Z,54.72
2022-09-25T12:12:03.520Z,54.07
2022-09-25T12:14:39.143Z,53.99
2022-09-25T12:17:43.716Z,54.43
2022-09-25T12:20:18.448Z,54.01
2022-09-25T12:23:15.839Z,54.50
2022-09-25T12:26:03.120Z,54.26
2022-09-25T12:29:04.069Z,54.31
2022-09-25T12:31:58.650Z,54.68
2022-09-25T12:34:43.552Z,55.04
2022-09-25T12:37:40.104Z,55.05
2022-09-25T12:40:34.634Z,55.82
2022-09-25T12:43:11.255Z,55.71
2022-09-25T12:45:43.877Z,54.03
2022-09-25T12:48:27.202Z,54.45
2022-09-25T12:51:16.407Z,53.62
2022-09-25T12:53:58.374Z,53.81
2022-09-25T12:56:27.783Z,54.59
2022-09-25T12:59:20.140Z,55.70
2022-09-25T13:02:13.737Z,56.25
2022-09-25T13:04:55.131Z,57.14
2022-09-25T13:07:44.009Z,58.06
2022-09-25T13:10:23.808Z,58.81
2022-09-25T13:12:52.728Z,60.14
2022-09-25T13:15:24.104Z,61.34
2022-09-25T13:17:51.078Z,61.99
2022-09-25T13:20:26.494Z,61.46
2022-09-25T13:22:58.790Z,61.77
2022-09-25T13:25:26.169Z,62.04
2022-09-25T13:27:54.158Z,62.68
2022-09-25T13:30:23.690Z,62.35
2022-09-25T13:32:55.939Z,63.51
2022-09-25T13:35:23.789Z,64.03
2022-09-25T13:37:53.588Z,65.58
2022-09-25T13:40:42.012Z,68.21
2022-09-25T13:43:21.332Z,70.42
2022-09-25T13:45:49.203Z,71.09
2022-09-25T13:48:37.091Z,72.53
2022-09-25T13:51:21.906Z,72.94
2022-09-25T13:54:03.647Z,71.92
2022-09-25T13:56:42.328Z,71.70
2022-09-25T13:59:17.624Z,72.72
2022-09-25T14:01:45.777Z,72.05
2022-09-25T14:04:15.025Z,72.57
2022-09-25T14:06:44.573Z,72.40
2022-09-25T14:09:14.004Z,71.70
2022-09-25T14:11:49.720Z,71.63
2022-09-25T14:14:30.262Z,71.04
2022-09-25T14:16:59.182Z,71.79
2022-09-25T14:19:36.417Z,70.48
2022-09-25T14:22:05.911Z,70.04
2022-09-25T14:24:33.168Z,70.36
2022-09-25T14:27:04.220Z,71.21
2022-09-25T14:29:38.411Z,71.19
2022-09-25T14:32:08.040Z,72.18
2022-09-25T14:34:43.482Z,71.59
2022-09-25T14:37:51.328Z,72.24
2022-09-25T14:40:23.338Z,71.40
2022-09-25T14:43:07.112Z,72.17
2022-09-25T14:46:11.996Z,71.05
2022-09-25T14:48:57.548Z,71.52
2022-09-25T14:51:31.220Z,71.11
2022-09-25T14:54:03.090Z,70.16
2022-09-25T14:56:33.271Z,68.97
2022-09-25T14:59:06.791Z,67.53
2022-09-25T15:01:34.187Z,67.86
2022-09-25T15:04:06.205Z,68.26
2022-09-25T15:06:36.568Z,67.63
2022-09-25T15:09:27.221Z,65.17
2022-09-25T15:11:54.784Z,64.63
2022-09-25T15:14:21.901Z,64.91
2022-09-25T15:17:08.484Z,65.23
2022-09-25T15:19:40.055Z,64.28
2022-09-25T15:22:22.320Z,62.02
2022-09-25T15:24:58.782Z,62.54
2022-09-25T15:27:26.959Z,63.05
2022-09-25T15:29:54.956Z,63.34
2022-09-25T15:32:26.784Z,63.01
2022-09-25T15:35:15.905Z,62.73
2022-09-25T15:37:42.355Z,61.79
2022-09-25T15:40:28.598Z,61.94
2022-09-25T15:42:55.691Z,61.27
2022-09-25T15:45:37.444Z,61.44
2022-09-25T15:48:33.267Z,61.20
2022-09-25T15:51:15.596Z,61.01
2022-09-25T15:53:51.134Z,59.19
2022-09-25T15:56:24.101Z,59.74
2022-09-25T15:58:53.348Z,60.40
2022-09-25T16:01:43.237Z,59.51
2022-09-25T16:04:39.087Z,59.76
2022-09-25T16:07:24.156Z,60.76
2022-09-25T16:09:52.912Z,60.72
2022-09-25T16:12:27.325Z,60.91
2022-09-25T16:14:55.441Z,60.99
2022-09-25T16:17:32.814Z,61.11
2022-09-25T16:20:02.498Z,61.18
2022-09-25T16:22:37.915Z,61.24
2022-09-25T16:25:15.645Z,61.54
2022-09-25T16:27:44.995Z,61.87
2022-09-25T16:30:22.300Z,62.31
2022-09-25T16:32:52.301Z,62.26
2022-09-25T16:36:04.508Z,62.49
2022-09-25T16:38:28.822Z,62.95
2022-09-25T16:41:21.488Z,63.44
2022-09-25T16:44:15.916Z,63.60
2022-09-25T16:46:55.007Z,64.30
2022-09-25T16:49:21.574Z,65.24
2022-09-25T16:51:50.061Z,65.33
2022-09-25T16:54:19.005Z,66.62
2022-09-25T16:56:48.113Z,66.98
2022-09-25T16:59:19.231Z,67.55
2022-09-25T17:01:47.044Z,67.85
2022-09-25T17:04:15.647Z,69.01
2022-09-25T17:06:45.798Z,68.81
2022-09-25T17:09:14.159Z,69.47
2022-09-25T17:11:44.446Z,69.40
2022-09-25T17:14:29.326Z,70.31
2022-09-25T17:16:57.248Z,70.78
2022-09-25T17:19:24.271Z,71.41
2022-09-25T17:21:53.021Z,71.28
2022-09-25T17:24:23.680Z,72.08
2022-09-25T17:26:51.911Z,73.16
2022-09-25T17:29:19.306Z,73.53
2022-09-25T17:31:45.949Z,74.10
2022-09-25T17:34:28.457Z,74.38
2022-09-25T17:36:55.332Z,74.72
2022-09-25T17:39:21.749Z,74.99
2022-09-25T17:41:48.167Z,75.62
2022-09-25T17:44:22.318Z,76.29
2022-09-25T17:46:50.733Z,76.86
2022-09-25T17:49:17.780Z,77.23
2022-09-25T17:51:44.726Z,77.39
2022-09-25T17:54:13.279Z,77.11
2022-09-25T17:56:40.419Z,77.54
2022-09-25T17:59:08.541Z,77.70
2022-09-25T18:01:39.074Z,77.83
2022-09-25T18:04:24.512Z,77.82
2022-09-25T18:06:51.947Z,78.10
2022-09-25T18:09:18.520Z,78.06
2022-09-25T18:11:45.007Z,78.54
2022-09-25T18:14:13.176Z,78.57
2022-09-25T18:16:41.500Z,78.27
2022-09-25T18:19:34.192Z,78.86
2022-09-25T18:22:20.579Z,79.48
2022-09-25T18:24:52.320Z,79.41
2022-09-25T18:27:19.213Z,79.37
2022-09-25T18:29:47.312Z,79.27
2022-09-25T18:32:14.205Z,80.20
2022-09-25T18:34:41.608Z,80.35
2022-09-25T18:37:08.155Z,80.63
2022-09-25T18:39:35.038Z,80.37
2022-09-25T18:42:04.633Z,80.47
2022-09-25T18:44:39.834Z,80.95
2022-09-25T18:47:08.132Z,80.57
2022-09-25T18:49:36.334Z,81.09
2022-09-25T18:52:03.644Z,81.04
2022-09-25T18:54:30.083Z,81.44
2022-09-25T18:56:58.447Z,81.39
2022-09-25T18:59:26.469Z,81.86
2022-09-25T19:01:54.417Z,82.08
2022-09-25T19:04:21.555Z,83.18
2022-09-25T19:06:48.701Z,83.06
2022-09-25T19:09:16.889Z,83.19
2022-09-25T19:11:44.431Z,83.51
2022-09-25T19:14:12.864Z,83.56
2022-09-25T19:16:39.351Z,84.14
2022-09-25T19:19:05.859Z,84.22
2022-09-25T19:21:33.166Z,85.49
2022-09-25T19:23:59.665Z,85.88
2022-09-25T19:26:26.113Z,85.72
2022-09-25T19:28:53.558Z,85.84
2022-09-25T19:31:23.050Z,86.13
2022-09-25T19:33:49.621Z,86.22
2022-09-25T19:36:20.348Z,86.91
2022-09-25T19:38:47.517Z,86.72
2022-09-25T19:41:21.781Z,87.01
2022-09-25T19:43:48.560Z,87.30
2022-09-25T19:46:17.478Z,87.84
2022-09-25T19:48:44.844Z,87.89
2022-09-25T19:51:11.780Z,87.79
2022-09-25T19:53:40.712Z,88.43
2022-09-25T19:56:08.857Z,88.83
2022-09-25T19:58:38.342Z,88.21
2022-09-25T20:01:12.046Z,88.62
2022-09-25T20:03:41.907Z,88.79
2022-09-25T20:06:09.565Z,88.66
2022-09-25T20:08:37.256Z,88.58
2022-09-25T20:11:21.549Z,88.53
2022-09-25T20:13:50.783Z,88.68
2022-09-25T20:16:19.956Z,88.82
2022-09-25T20:19:09.214Z,88.96
2022-09-25T20:21:37.904Z,89.04
2022-09-25T20:24:07.103Z,89.31
2022-09-25T20:26:36.573Z,89.72
2022-09-25T20:29:14.561Z,89.31
2022-09-25T20:31:43.210Z,88.70
2022-09-25T20:34:17.373Z,88.79
2022-09-25T20:36:44.388Z,88.78
2022-09-25T20:39:10.992Z,88.49
2022-09-25T20:41:38.308Z,88.79
2022-09-25T20:44:06.379Z,89.58
2022-09-25T20:46:34.806Z,89.48
2022-09-25T20:49:04.132Z,89.64
2022-09-25T20:51:35.214Z,89.99
2022-09-25T20:54:06.225Z,89.72
2022-09-25T20:56:36.404Z,89.16
2022-09-25T20:59:04.780Z,89.21
2022-09-25T21:01:36.874Z,89.44
2022-09-25T21:04:08.326Z,89.11
2022-09-25T21:06:37.878Z,88.94
2022-09-25T21:09:29.672Z,88.80
2022-09-25T21:11:56.738Z,89.72
2022-09-25T21:14:25.730Z,89.71
2022-09-25T21:16:53.065Z,89.94
2022-09-25T21:19:21.050Z,89.92
2022-09-25T21:21:48.357Z,90.54
2022-09-25T21:24:16.545Z,90.69
2022-09-25T21:26:43.539Z,90.76
2022-09-25T21:29:11.855Z,90.71
2022-09-25T21:31:42.718Z,90.99
2022-09-25T21:34:14.904Z,91.09
2022-09-25T21:36:41.924Z,90.88
2022-09-25T21:39:09.305Z,90.96
2022-09-25T21:41:36.475Z,90.63
2022-09-25T21:44:06.735Z,90.92
2022-09-25T21:46:34.925Z,90.74
2022-09-25T21:49:08.069Z,90.71
2022-09-25T21:51:42.586Z,90.88
2022-09-25T21:54:10.860Z,90.89
2022-09-25T21:56:38.015Z,90.98
2022-09-25T21:59:08.779Z,91.23
2022-09-25T22:01:37.553Z,91.00
2022-09-25T22:04:11.796Z,91.07
2022-09-25T22:06:40.617Z,90.80
2022-09-25T22:09:13.599Z,90.43
2022-09-25T22:11:40.612Z,90.44
2022-09-25T22:14:10.880Z,90.93
2022-09-25T22:16:42.523Z,91.25
2022-09-25T22:19:18.542Z,90.88
2022-09-25T22:21:47.022Z,90.84
2022-09-25T22:24:14.085Z,90.96
2022-09-25T22:26:42.876Z,91.43
2022-09-25T22:29:10.275Z,91.46
2022-09-25T22:31:44.060Z,91.41
2022-09-25T22:34:14.897Z,91.93
2022-09-25T22:36:41.479Z,91.95
2022-09-25T22:39:07.995Z,92.17
2022-09-25T22:41:38.097Z,92.15
2022-09-25T22:44:08.067Z,92.39
2022-09-25T22:46:37.850Z,92.73
2022-09-25T22:49:04.877Z,92.85
2022-09-25T22:51:31.730Z,92.98
2022-09-25T22:53:58.214Z,93.07
2022-09-25T22:56:27.647Z,92.98
2022-09-25T22:58:59.080Z,93.06
2022-09-25T23:01:33.740Z,92.76
2022-09-25T23:04:03.926Z,92.58
2022-09-25T23:06:33.039Z,93.30
2022-09-25T23:09:03.057Z,93.00
2022-09-25T23:11:30.257Z,93.40
2022-09-25T23:13:59.545Z,92.79
2022-09-25T23:16:26.784Z,93.06
2022-09-25T23:18:55.616Z,92.70
2022-09-25T23:21:22.549Z,92.33
2022-09-25T23:23:49.004Z,92.14
2022-09-25T23:26:15.429Z,91.97
2022-09-25T23:28:41.870Z,92.46
2022-09-25T23:31:13.724Z,92.14
2022-09-25T23:33:41.378Z,91.61
2022-09-25T23:36:13.531Z,91.67
2022-09-25T23:38:40.147Z,91.67
2022-09-25T23:41:17.046Z,91.62
2022-09-25T23:43:44.861Z,91.23
2022-09-25T23:46:12.282Z,90.89
2022-09-25T23:48:39.643Z,90.91
2022-09-25T23:51:06.709Z,91.22
2022-09-25T23:53:34.240Z,90.94
2022-09-25T23:56:07.763Z,91.48
2022-09-25T23:58:35.291Z,90.96
